Time;durP1;ratioP1;P1;durP2;ratioP2;P2;SDS_P1;SDS_P2;PMS_P1;PMS_P2;Temp;Humidity;BMP_temperature;BMP_pressure;BME280_temperature;BME280_humidity;BME280_pressure;Samples;Min_cycle;Max_cycle;Signal;HPM_P1;HPM_P2
2023/10/08 00:02:26;;;;;;;6.50;2.50;;;14.80;82.90;;;;;;5025062;28;20487;-61
2023/10/08 00:04:54;;;;;;;19.27;2.47;;;14.80;83.80;;;;;;5024442;28;20430;-61
2023/10/08 00:07:27;;;;;;;6.23;2.07;;;14.80;83.60;;;;;;5022263;28;20960;-62
2023/10/08 00:09:53;;;;;;;9.57;2.80;;;14.80;83.70;;;;;;5027267;28;20894;-62
2023/10/08 00:12:20;;;;;;;4.77;2.03;;;14.90;82.00;;;;;;5027263;28;20516;-62
2023/10/08 00:14:49;;;;;;;7.90;2.57;;;15.00;82.00;;;;;;5017947;28;20226;-62
2023/10/08 00:17:16;;;;;;;4.37;1.80;;;15.00;82.20;;;;;;5022905;28;20420;-61
2023/10/08 00:19:43;;;;;;;5.50;2.80;;;15.10;81.50;;;;;;5026894;28;20913;-62
2023/10/08 00:22:10;;;;;;;13.43;2.03;;;15.10;81.90;;;;;;5025747;28;20405;-62
2023/10/08 00:24:40;;;;;;;35.87;3.63;;;15.10;82.90;;;;;;5027002;28;20448;-62
2023/10/08 00:27:06;;;;;;;8.23;2.80;;;15.00;81.00;;;;;;5024715;28;20428;-62
2023/10/08 00:29:32;;;;;;;6.10;2.43;;;15.20;79.90;;;;;;5026399;28;20445;-61
2023/10/08 00:31:58;;;;;;;6.60;2.13;;;15.30;79.80;;;;;;5020236;28;20905;-62
2023/10/08 00:34:24;;;;;;;4.63;2.60;;;15.30;79.80;;;;;;5026802;28;20222;-62
2023/10/08 00:36:50;;;;;;;9.17;3.17;;;15.30;79.20;;;;;;5021080;28;20179;-62
2023/10/08 00:39:22;;;;;;;6.27;2.10;;;15.30;79.40;;;;;;5028815;28;20465;-62
2023/10/08 00:41:58;;;;;;;8.97;2.60;;;15.30;79.20;;;;;;5021974;28;20401;-62
2023/10/08 00:44:30;;;;;;;12.10;3.23;;;15.40;78.60;;;;;;5026513;28;20456;-62
2023/10/08 00:46:56;;;;;;;8.33;2.90;;;15.40;78.70;;;;;;5023244;28;20409;-62
2023/10/08 00:49:35;;;;;;;6.80;2.13;;;15.40;79.40;;;;;;5030438;28;20417;-64
2023/10/08 00:54:39;;;;;;;5.70;1.63;;;15.40;78.90;;;;;;5030250;28;20576;-64
2023/10/08 00:57:05;;;;;;;8.77;3.20;;;15.40;78.80;;;;;;5024102;28;20479;-64
2023/10/08 00:59:44;;;;;;;6.93;2.10;;;15.40;78.90;;;;;;5029822;28;20425;-64
2023/10/08 01:02:14;;;;;;;6.10;2.10;;;15.30;79.30;;;;;;5023666;28;20420;-64
2023/10/08 01:04:43;;;;;;;5.70;1.57;;;15.50;79.40;;;;;;5028696;28;20447;-64
2023/10/08 01:07:13;;;;;;;6.07;1.50;;;15.50;79.50;;;;;;5024295;28;20413;-64
2023/10/08 01:09:42;;;;;;;3.93;1.63;;;15.30;79.50;;;;;;5031672;28;20430;-64
2023/10/08 01:12:13;;;;;;;8.23;2.20;;;15.40;79.40;;;;;;5024794;28;20421;-64
2023/10/08 01:14:42;;;;;;;4.10;1.80;;;15.40;79.50;;;;;;5028987;28;20466;-64
2023/10/08 01:17:08;;;;;;;4.17;1.83;;;15.40;78.60;;;;;;5025456;28;20957;-63
2023/10/08 01:19:41;;;;;;;7.67;2.27;;;15.50;78.40;;;;;;5029748;28;20900;-64
2023/10/08 01:22:08;;;;;;;10.90;1.70;;;15.40;79.40;;;;;;5031202;28;20455;-64
2023/10/08 01:24:35;;;;;;;4.20;1.67;;;15.30;79.40;;;;;;5030084;28;20492;-64
2023/10/08 01:27:04;;;;;;;5.73;2.67;;;15.20;79.30;;;;;;5028890;28;20417;-64
2023/10/08 01:29:31;;;;;;;4.37;1.80;;;15.30;79.40;;;;;;5029541;28;20429;-64
2023/10/08 01:31:57;;;;;;;6.23;1.87;;;15.20;78.90;;;;;;5027950;28;20409;-64
2023/10/08 01:34:30;;;;;;;14.60;3.17;;;15.20;78.70;;;;;;5029780;28;21010;-64
2023/10/08 01:37:01;;;;;;;9.60;2.27;;;15.20;79.00;;;;;;5027941;28;20213;-64
2023/10/08 01:39:27;;;;;;;11.43;2.33;;;15.10;80.00;;;;;;5031502;28;20535;-63
2023/10/08 01:41:52;;;;;;;9.37;2.37;;;15.10;80.10;;;;;;5030703;28;20427;-62
2023/10/08 01:44:18;;;;;;;6.50;2.07;;;14.90;80.00;;;;;;5029100;28;20223;-62
2023/10/08 01:46:43;;;;;;;7.90;2.33;;;15.00;78.90;;;;;;5025156;28;20182;-62
2023/10/08 01:49:16;;;;;;;4.30;1.67;;;15.10;78.90;;;;;;5031253;28;20263;-62
2023/10/08 01:51:46;;;;;;;6.20;2.47;;;15.10;79.30;;;;;;5027688;28;20233;-62
2023/10/08 01:54:14;;;;;;;5.70;3.20;;;15.00;81.80;;;;;;5030697;28;20803;-61
2023/10/08 01:56:41;;;;;;;9.67;2.80;;;15.10;80.10;;;;;;5021962;28;20471;-62
2023/10/08 01:59:09;;;;;;;6.60;2.20;;;15.00;80.50;;;;;;5029436;28;20506;-62
2023/10/08 02:01:35;;;;;;;5.17;1.93;;;15.00;80.40;;;;;;5026393;28;20844;-62
2023/10/08 02:04:01;;;;;;;15.67;2.20;;;15.00;80.70;;;;;;5030519;28;20432;-62
2023/10/08 02:06:27;;;;;;;30.43;3.37;;;15.00;80.90;;;;;;5019994;28;20191;-62
2023/10/08 02:08:53;;;;;;;6.77;2.40;;;14.90;80.50;;;;;;5032361;28;20688;-62
2023/10/08 02:11:20;;;;;;;5.80;2.00;;;14.90;80.90;;;;;;5021930;28;20513;-62
2023/10/08 02:13:46;;;;;;;6.33;2.33;;;14.90;80.80;;;;;;5026943;28;20537;-62
2023/10/08 02:16:18;;;;;;;5.73;1.97;;;14.90;81.10;;;;;;5040213;23;20445;-61
2023/10/08 02:18:44;;;;;;;2.87;1.80;;;14.90;81.30;;;;;;5011047;28;20460;-62
2023/10/08 02:21:10;;;;;;;6.70;2.00;;;14.90;81.40;;;;;;5009948;28;20422;-61
2023/10/08 02:23:37;;;;;;;4.17;1.90;;;14.90;81.70;;;;;;5012686;28;20191;-62
2023/10/08 02:26:02;;;;;;;17.13;2.70;;;14.80;80.60;;;;;;5009074;28;20926;-62
2023/10/08 02:28:28;;;;;;;5.50;2.80;;;14.80;80.90;;;;;;5013341;28;20468;-62
2023/10/08 02:30:54;;;;;;;6.47;2.10;;;14.80;81.30;;;;;;5013665;28;20520;-62
2023/10/08 02:33:20;;;;;;;7.67;2.20;;;14.70;81.80;;;;;;5012063;28;20263;-61
2023/10/08 02:35:46;;;;;;;7.53;1.97;;;14.80;81.80;;;;;;5006567;28;20179;-62
2023/10/08 02:38:17;;;;;;;8.03;2.40;;;14.80;81.90;;;;;;5012259;28;20176;-64
2023/10/08 02:40:49;;;;;;;9.10;2.73;;;14.80;82.00;;;;;;5010271;28;20430;-63
2023/10/08 02:43:15;;;;;;;7.40;2.10;;;14.80;81.80;;;;;;5009801;28;20414;-63
2023/10/08 02:45:41;;;;;;;4.40;2.27;;;14.70;83.10;;;;;;5008365;28;20442;-64
2023/10/08 02:48:12;;;;;;;5.70;2.20;;;14.60;84.00;;;;;;5014406;28;20441;-64
2023/10/08 02:50:45;;;;;;;5.77;1.87;;;14.60;82.70;;;;;;5014128;28;20430;-64
2023/10/08 02:53:11;;;;;;;5.43;2.17;;;14.60;83.50;;;;;;5018798;28;20892;-64
2023/10/08 02:55:44;;;;;;;4.87;1.87;;;14.60;83.20;;;;;;5009892;28;20434;-64
2023/10/08 02:58:18;;;;;;;9.57;2.00;;;14.50;84.90;;;;;;5011923;28;20434;-63
2023/10/08 03:00:48;;;;;;;7.83;1.83;;;14.40;85.70;;;;;;5010071;28;20453;-63
2023/10/08 03:03:15;;;;;;;5.43;2.80;;;14.20;86.70;;;;;;5012096;28;20868;-64
2023/10/08 03:05:49;;;;;;;6.50;2.03;;;14.10;88.60;;;;;;5009562;28;20430;-64
2023/10/08 03:08:20;;;;;;;8.10;1.83;;;13.90;89.70;;;;;;5007949;28;20942;-64
2023/10/08 03:10:48;;;;;;;5.73;1.63;;;13.70;90.30;;;;;;5008221;28;20430;-64
2023/10/08 03:13:16;;;;;;;5.10;1.77;;;13.50;90.40;;;;;;5011933;28;20469;-64
2023/10/08 03:18:35;;;;;;;7.30;2.00;;;13.20;91.30;;;;;;5008263;28;20449;-62
2023/10/08 03:21:05;;;;;;;14.77;2.10;;;13.10;91.60;;;;;;5008149;28;20453;-62
2023/10/08 03:23:34;;;;;;;5.30;2.27;;;12.90;91.60;;;;;;5011580;28;20546;-61
2023/10/08 03:26:11;;;;;;;4.40;1.97;;;12.90;92.10;;;;;;5007911;28;21277;-62
2023/10/08 03:28:41;;;;;;;9.20;2.37;;;12.90;91.90;;;;;;5010837;28;20460;-61
2023/10/08 03:31:13;;;;;;;8.63;2.43;;;12.90;92.40;;;;;;5011861;28;20525;-63
2023/10/08 03:33:40;;;;;;;4.00;1.90;;;12.80;91.70;;;;;;5010971;28;20524;-63
2023/10/08 03:36:50;;;;;;;6.13;2.30;;;12.80;92.40;;;;;;5008168;28;20512;-63
2023/10/08 03:38:57;;;;;;;11.50;2.57;;;12.90;91.10;;;;;;5005302;28;20777;-64
2023/10/08 03:41:32;;;;;;;6.33;2.70;;;12.90;91.50;;;;;;5009213;28;20422;-63
2023/10/08 03:44:01;;;;;;;5.70;1.90;;;13.00;91.60;;;;;;5009270;28;20436;-63
2023/10/08 03:46:42;;;;;;;7.77;2.27;;;13.10;91.10;;;;;;5008934;28;20837;-63
2023/10/08 03:51:46;;;;;;;4.20;2.00;;;12.90;91.90;;;;;;5010947;28;20406;-63
2023/10/08 03:56:45;;;;;;;7.13;2.17;;;13.00;91.30;;;;;;5013958;28;20179;-63
2023/10/08 04:01:59;;;;;;;4.90;2.70;;;13.00;91.70;;;;;;5011559;28;20421;-63
2023/10/08 04:05:18;;;;;;;10.57;2.20;;;12.90;91.20;;;;;;5021021;28;20528;-63
2023/10/08 04:12:50;;;;;;;10.13;1.60;;;12.60;92.30;;;;;;4986037;28;20410;-63
2023/10/08 04:15:16;;;;;;;5.80;1.90;;;12.60;92.40;;;;;;5006282;28;20471;-63
2023/10/08 04:17:45;;;;;;;5.90;2.03;;;12.50;93.10;;;;;;5009576;28;20491;-63
2023/10/08 04:20:33;;;;;;;5.40;2.40;;;12.50;93.20;;;;;;5006710;28;20588;-63
2023/10/08 04:23:00;;;;;;;6.03;2.20;;;12.50;93.00;;;;;;5008609;28;20410;-63
2023/10/08 04:25:30;;;;;;;5.73;2.20;;;12.40;93.80;;;;;;5006261;28;20433;-63
2023/10/08 04:28:00;;;;;;;5.70;2.30;;;12.20;93.60;;;;;;5010167;28;20421;-63
2023/10/08 04:30:32;;;;;;;6.27;1.90;;;12.20;93.90;;;;;;5006285;28;20432;-63
2023/10/08 04:33:15;;;;;;;13.35;2.70;;;12.20;93.90;;;;;;5009598;28;20437;-63
2023/10/08 04:35:51;;;;;;;5.40;2.27;;;12.10;94.10;;;;;;5006045;28;20430;-63
2023/10/08 04:38:21;;;;;;;7.13;1.77;;;12.00;94.50;;;;;;5007409;28;20420;-63
2023/10/08 04:40:51;;;;;;;23.07;3.03;;;12.20;94.30;;;;;;5006034;28;20418;-63
2023/10/08 04:43:24;;;;;;;6.17;2.30;;;12.00;94.60;;;;;;5009811;28;20900;-63
2023/10/08 04:45:51;;;;;;;6.63;2.20;;;12.00;94.70;;;;;;5005203;28;20429;-63
2023/10/08 04:48:29;;;;;;;7.50;1.67;;;12.00;95.20;;;;;;5009162;28;20426;-63
2023/10/08 04:50:58;;;;;;;5.27;2.43;;;11.90;95.20;;;;;;5007834;28;20496;-63
2023/10/08 04:53:32;;;;;;;7.90;2.80;;;11.90;95.30;;;;;;5009461;28;20559;-63
2023/10/08 04:56:19;;;;;;;5.87;2.23;;;11.90;95.10;;;;;;5007507;28;21283;-63
2023/10/08 04:58:47;;;;;;;7.67;2.50;;;11.80;95.30;;;;;;5008447;28;20422;-63
2023/10/08 05:01:17;;;;;;;7.67;1.90;;;11.80;95.70;;;;;;5007380;28;20569;-63
2023/10/08 05:14:34;;;;;;;7.80;2.90;;;12.10;95.00;;;;;;5006895;28;20524;-63
2023/10/08 05:22:44;;;;;;;3.83;2.00;;;11.90;95.20;;;;;;5010040;28;20428;-63
2023/10/08 05:30:25;;;;;;;10.73;2.70;;;11.90;95.40;;;;;;5006387;28;20422;-63
2023/10/08 05:43:37;;;;;;;6.33;2.87;;;11.70;95.40;;;;;;5013840;28;20533;-63
2023/10/08 05:57:35;;;;;;;9.03;2.70;;;11.70;96.30;;;;;;5006178;28;20421;-63
2023/10/08 06:13:02;;;;;;;6.00;3.57;;;11.70;97.10;;;;;;5011108;28;20406;-63
2023/10/08 06:15:44;;;;;;;16.60;2.50;;;11.80;96.80;;;;;;5006206;28;20430;-63
2023/10/08 06:18:12;;;;;;;6.17;2.37;;;11.80;96.70;;;;;;5012232;28;20434;-63
2023/10/08 06:20:42;;;;;;;3.70;2.07;;;11.80;96.90;;;;;;5009303;28;20811;-63
2023/10/08 06:23:13;;;;;;;6.87;1.90;;;12.00;96.90;;;;;;5012488;28;20417;-63
2023/10/08 06:25:45;;;;;;;4.27;1.70;;;12.00;96.80;;;;;;5007588;28;20422;-63
2023/10/08 06:28:15;;;;;;;3.93;2.03;;;12.20;96.30;;;;;;5007745;28;20407;-63
2023/10/08 06:30:41;;;;;;;5.30;2.40;;;12.30;96.30;;;;;;5008716;28;20434;-63
2023/10/08 06:33:09;;;;;;;8.30;2.50;;;12.30;96.40;;;;;;5012126;28;20406;-63
2023/10/08 06:35:35;;;;;;;5.40;2.27;;;12.50;96.60;;;;;;5008633;28;20171;-63
2023/10/08 06:38:07;;;;;;;6.10;2.73;;;12.40;96.00;;;;;;5012249;28;20446;-63
2023/10/08 06:43:11;;;;;;;6.33;2.00;;;12.70;95.10;;;;;;5012491;28;20426;-63
2023/10/08 06:45:41;;;;;;;7.40;2.50;;;13.00;94.40;;;;;;5008484;28;20977;-63
2023/10/08 06:48:07;;;;;;;4.80;2.30;;;13.20;93.80;;;;;;5011616;28;20418;-63
2023/10/08 06:50:36;;;;;;;5.77;2.13;;;13.50;92.50;;;;;;5010290;28;20506;-63
2023/10/08 06:53:07;;;;;;;3.63;1.50;;;13.90;92.00;;;;;;5010628;28;20179;-63
2023/10/08 06:55:35;;;;;;;5.53;2.00;;;14.10;91.90;;;;;;5010009;28;20442;-63
2023/10/08 06:58:05;;;;;;;4.83;1.87;;;14.30;91.50;;;;;;5011936;28;20752;-63
2023/10/08 07:00:40;;;;;;;3.87;1.60;;;14.40;91.70;;;;;;5010278;28;20452;-63
2023/10/08 07:03:08;;;;;;;5.13;2.00;;;14.60;90.90;;;;;;5011822;28;20620;-63
2023/10/08 07:05:36;;;;;;;5.20;2.40;;;14.70;91.00;;;;;;5009404;28;20520;-63
2023/10/08 07:08:06;;;;;;;8.83;1.43;;;14.90;90.60;;;;;;5011678;28;21198;-62
2023/10/08 07:10:34;;;;;;;19.40;2.93;;;15.10;90.40;;;;;;5009007;28;20507;-62
2023/10/08 07:13:02;;;;;;;7.27;1.80;;;15.30;90.30;;;;;;5011811;28;20429;-62
2023/10/08 07:15:29;;;;;;;3.57;1.77;;;15.40;90.00;;;;;;5007640;28;20430;-62
2023/10/08 07:17:56;;;;;;;12.30;2.60;;;15.40;90.40;;;;;;5010921;28;20449;-62
2023/10/08 07:20:22;;;;;;;5.63;1.70;;;15.50;89.80;;;;;;5007914;28;20472;-62
2023/10/08 07:22:54;;;;;;;3.03;1.73;;;15.70;90.00;;;;;;5011707;28;20421;-64
2023/10/08 07:25:21;;;;;;;10.33;2.53;;;15.80;89.70;;;;;;5007679;28;20429;-63
2023/10/08 07:27:47;;;;;;;4.63;1.50;;;15.90;89.60;;;;;;5010471;28;20422;-63
2023/10/08 07:30:13;;;;;;;10.83;2.90;;;16.10;89.80;;;;;;5005920;28;20553;-63
2023/10/08 07:32:39;;;;;;;6.83;2.67;;;16.40;89.30;;;;;;5009633;28;20195;-63
2023/10/08 07:37:46;;;;;;;17.87;3.30;;;16.90;88.40;;;;;;5010785;28;21098;-64
2023/10/08 07:40:13;;;;;;;6.40;2.13;;;17.30;87.40;;;;;;5008891;28;20509;-63
2023/10/08 07:42:39;;;;;;;12.23;1.87;;;17.60;86.30;;;;;;5011104;28;20425;-63
2023/10/08 07:45:05;;;;;;;14.03;1.80;;;17.80;86.20;;;;;;5007744;28;20898;-63
2023/10/08 07:47:32;;;;;;;6.00;2.50;;;17.90;85.70;;;;;;5010921;28;20230;-63
2023/10/08 07:50:01;;;;;;;7.23;2.00;;;18.00;85.90;;;;;;5009296;28;21004;-64
2023/10/08 07:52:26;;;;;;;16.00;1.77;;;18.00;86.00;;;;;;5010887;28;20245;-63
2023/10/08 07:54:53;;;;;;;6.00;1.97;;;17.60;86.60;;;;;;5009153;28;20469;-63
2023/10/08 07:57:20;;;;;;;5.00;2.27;;;17.60;86.80;;;;;;5010123;28;20210;-64
2023/10/08 07:59:46;;;;;;;4.50;1.40;;;17.60;87.50;;;;;;5008826;28;20453;-64
2023/10/08 08:02:14;;;;;;;4.80;1.30;;;17.40;88.70;;;;;;5010740;28;20411;-63
2023/10/08 08:04:45;;;;;;;6.10;2.17;;;17.40;89.20;;;;;;5008118;28;20434;-63
2023/10/08 08:07:18;;;;;;;3.87;2.10;;;17.40;88.80;;;;;;5006008;28;20429;-63
2023/10/08 08:09:58;;;;;;;11.63;2.57;;;17.40;89.50;;;;;;5008408;28;20426;-63
2023/10/08 08:12:25;;;;;;;4.40;1.63;;;17.20;90.80;;;;;;5010604;28;20436;-63
2023/10/08 08:14:52;;;;;;;6.90;2.40;;;17.20;90.50;;;;;;5006646;28;20516;-63
2023/10/08 08:17:18;;;;;;;10.00;3.40;;;17.20;90.50;;;;;;5010601;28;20441;-63
2023/10/08 08:19:47;;;;;;;12.17;2.00;;;17.20;90.40;;;;;;5007117;28;20438;-63
2023/10/08 08:22:21;;;;;;;8.00;2.33;;;17.40;90.40;;;;;;5010864;28;20418;-63
2023/10/08 08:24:55;;;;;;;6.00;1.97;;;17.40;90.70;;;;;;5006873;28;20499;-63
2023/10/08 08:27:24;;;;;;;8.80;2.30;;;17.70;90.00;;;;;;5010869;28;20788;-63
2023/10/08 08:29:56;;;;;;;9.33;2.20;;;17.70;90.30;;;;;;5005199;28;20792;-63
2023/10/08 08:32:23;;;;;;;7.30;2.27;;;17.80;90.40;;;;;;5010331;28;20433;-63
2023/10/08 08:34:50;;;;;;;5.93;1.93;;;18.30;89.80;;;;;;5001271;28;20462;-63
2023/10/08 08:37:22;;;;;;;5.13;2.30;;;18.50;89.60;;;;;;5010519;28;20437;-64
2023/10/08 08:39:48;;;;;;;11.13;2.60;;;19.10;87.80;;;;;;5008034;28;20525;-63
2023/10/08 08:42:16;;;;;;;6.87;2.63;;;19.70;86.90;;;;;;5010597;28;20480;-64
2023/10/08 08:44:46;;;;;;;7.90;2.80;;;19.90;86.80;;;;;;5007251;28;20457;-64
2023/10/08 08:47:18;;;;;;;6.83;2.03;;;20.30;85.90;;;;;;5009944;28;20430;-64
2023/10/08 08:49:47;;;;;;;4.20;1.83;;;20.60;86.00;;;;;;5008354;28;20529;-64
2023/10/08 08:52:14;;;;;;;8.60;2.97;;;20.90;84.10;;;;;;5010545;28;20856;-64
2023/10/08 08:54:42;;;;;;;7.13;2.20;;;20.80;84.80;;;;;;5008050;28;20577;-64
2023/10/08 08:57:13;;;;;;;16.90;2.87;;;20.50;86.80;;;;;;5004988;28;20409;-64
2023/10/08 08:59:59;;;;;;;4.97;2.23;;;20.70;85.40;;;;;;5005953;28;20430;-64
2023/10/08 09:02:25;;;;;;;4.87;2.50;;;20.90;83.60;;;;;;5006461;28;20924;-64
2023/10/08 09:04:53;;;;;;;4.80;2.17;;;20.90;83.90;;;;;;5007171;28;20425;-64
2023/10/08 09:07:24;;;;;;;5.60;2.20;;;20.80;84.90;;;;;;5010153;28;20772;-64
2023/10/08 09:09:49;;;;;;;5.53;2.03;;;20.90;85.30;;;;;;5002948;28;20755;-64
2023/10/08 09:12:17;;;;;;;8.27;2.60;;;20.90;86.40;;;;;;5014040;28;20503;-64
2023/10/08 09:14:44;;;;;;;7.47;2.53;;;21.00;84.50;;;;;;5009728;28;20242;-64
2023/10/08 09:17:11;;;;;;;5.30;1.97;;;21.00;85.30;;;;;;5013735;28;20445;-64
2023/10/08 09:19:38;;;;;;;4.23;2.03;;;21.20;84.30;;;;;;5010121;28;20513;-64
2023/10/08 09:22:05;;;;;;;6.50;2.27;;;21.00;85.30;;;;;;5014122;28;20421;-64
2023/10/08 09:24:33;;;;;;;4.43;1.70;;;21.10;84.30;;;;;;5010496;28;20429;-64
2023/10/08 09:26:59;;;;;;;5.23;2.17;;;21.00;84.80;;;;;;5013724;28;20430;-64
2023/10/08 09:29:26;;;;;;;7.37;2.00;;;21.00;86.30;;;;;;5010015;28;20465;-64
2023/10/08 09:31:59;;;;;;;7.43;3.07;;;21.10;86.10;;;;;;5013268;28;20418;-64
2023/10/08 09:34:30;;;;;;;10.80;2.37;;;21.20;86.20;;;;;;5009924;28;20461;-63
2023/10/08 09:36:57;;;;;;;3.83;2.20;;;21.20;86.20;;;;;;5014020;28;20430;-64
2023/10/08 09:39:25;;;;;;;15.33;2.07;;;21.20;84.60;;;;;;5011528;28;20429;-63
2023/10/08 09:41:53;;;;;;;17.20;2.40;;;21.20;85.20;;;;;;5006094;28;20428;-64
2023/10/08 09:44:19;;;;;;;8.70;1.80;;;21.50;84.40;;;;;;5010774;28;20436;-64
2023/10/08 09:46:53;;;;;;;5.67;2.30;;;21.70;84.70;;;;;;5012733;28;20416;-64
2023/10/08 09:49:28;;;;;;;11.27;2.90;;;21.90;83.90;;;;;;5011824;28;20421;-64
2023/10/08 09:51:55;;;;;;;4.13;2.03;;;21.90;82.70;;;;;;5005864;28;20420;-64
2023/10/08 09:54:26;;;;;;;40.67;3.07;;;22.00;82.40;;;;;;5011420;28;20469;-64
2023/10/08 09:56:54;;;;;;;4.53;1.93;;;21.90;83.80;;;;;;5005501;28;20504;-64
2023/10/08 09:59:21;;;;;;;7.47;2.20;;;22.00;82.20;;;;;;5011078;28;20460;-64
2023/10/08 10:01:47;;;;;;;5.00;2.33;;;21.90;82.80;;;;;;5012647;28;20423;-64
2023/10/08 10:04:28;;;;;;;9.57;2.87;;;21.90;82.30;;;;;;5011831;28;20433;-64
2023/10/08 10:06:57;;;;;;;6.53;2.10;;;22.00;81.90;;;;;;5007593;28;20528;-64
2023/10/08 10:09:25;;;;;;;13.03;1.63;;;21.90;82.60;;;;;;5010762;28;20447;-64
2023/10/08 10:11:53;;;;;;;9.90;2.67;;;22.00;83.20;;;;;;5008623;28;20414;-64
2023/10/08 10:14:22;;;;;;;9.77;2.60;;;22.10;82.50;;;;;;5005652;28;20468;-64
2023/10/08 10:17:20;;;;;;;10.77;2.37;;;22.20;83.80;;;;;;5011471;28;20426;-64
2023/10/08 10:19:51;;;;;;;10.63;2.60;;;22.20;86.10;;;;;;5008473;28;20425;-64
2023/10/08 10:22:28;;;;;;;6.53;2.47;;;22.30;83.50;;;;;;5012728;28;20425;-64
2023/10/08 10:24:54;;;;;;;5.83;1.57;;;22.40;84.70;;;;;;5003566;28;20772;-64
2023/10/08 10:27:21;;;;;;;7.23;2.53;;;22.40;84.10;;;;;;5012785;28;20429;-64
2023/10/08 10:29:48;;;;;;;9.60;2.03;;;22.30;85.20;;;;;;5008411;28;20263;-64
2023/10/08 10:32:15;;;;;;;6.50;1.83;;;22.30;84.40;;;;;;5012507;28;20874;-64
2023/10/08 10:34:42;;;;;;;14.90;2.70;;;22.20;85.20;;;;;;5008621;28;20552;-64
2023/10/08 10:37:40;;;;;;;19.07;3.00;;;22.30;84.60;;;;;;5007018;28;20453;-63
2023/10/08 10:40:00;;;;;;;8.53;2.70;;;22.50;85.20;;;;;;5007140;28;20420;-64
2023/10/08 10:42:28;;;;;;;13.90;3.10;;;22.60;83.60;;;;;;5012457;28;20422;-64
2023/10/08 10:44:56;;;;;;;13.00;2.27;;;22.70;84.80;;;;;;5008888;28;20949;-64
2023/10/08 10:52:44;;;;;;;6.03;2.17;;;22.80;86.50;;;;;;5012600;28;20703;-64
2023/10/08 10:58:15;;;;;;;9.53;2.90;;;22.80;86.30;;;;;;5012666;28;20463;-64
2023/10/08 11:03:16;;;;;;;10.40;2.67;;;23.10;86.20;;;;;;5012153;28;20426;-64
2023/10/08 11:05:51;;;;;;;5.20;2.70;;;23.20;87.00;;;;;;5009171;28;20536;-64
2023/10/08 11:08:22;;;;;;;6.10;2.37;;;23.20;85.90;;;;;;5007463;28;20437;-64
2023/10/08 11:10:51;;;;;;;7.13;2.17;;;23.10;85.30;;;;;;5009992;28;20418;-64
2023/10/08 11:13:19;;;;;;;5.07;2.13;;;23.20;85.60;;;;;;5012168;28;20852;-64
2023/10/08 11:15:51;;;;;;;4.43;2.13;;;23.20;85.90;;;;;;5007692;28;20464;-64
2023/10/08 11:18:29;;;;;;;5.27;2.10;;;23.30;85.30;;;;;;5007166;28;20437;-64
2023/10/08 11:21:13;;;;;;;5.27;2.40;;;23.30;84.70;;;;;;5008155;28;20448;-64
2023/10/08 11:23:52;;;;;;;15.60;2.80;;;23.40;86.60;;;;;;5011143;28;20425;-64
2023/10/08 11:26:19;;;;;;;11.27;2.80;;;23.40;86.80;;;;;;5009548;28;20463;-64
2023/10/08 11:28:47;;;;;;;6.53;2.00;;;23.30;84.40;;;;;;5010796;28;20428;-64
2023/10/08 11:31:19;;;;;;;8.83;2.07;;;23.30;87.70;;;;;;5007919;28;20417;-64
2023/10/08 11:33:55;;;;;;;5.20;2.07;;;23.20;87.60;;;;;;5010357;28;20949;-64
2023/10/08 11:36:27;;;;;;;8.43;2.67;;;23.00;87.00;;;;;;5007470;28;20415;-63
2023/10/08 11:39:00;;;;;;;5.10;2.07;;;22.80;89.10;;;;;;5003774;28;20485;-62
2023/10/08 11:41:27;;;;;;;4.80;2.60;;;22.60;89.80;;;;;;5008376;28;20436;-63
2023/10/08 11:43:58;;;;;;;3.60;2.03;;;22.50;89.50;;;;;;5009932;28;20437;-63
2023/10/08 11:46:51;;;;;;;9.90;1.93;;;22.40;90.00;;;;;;5008876;28;20428;-62
2023/10/08 11:49:25;;;;;;;12.00;2.50;;;22.40;89.10;;;;;;5004026;28;20426;-63
2023/10/08 11:51:55;;;;;;;15.00;3.47;;;22.30;89.80;;;;;;5003457;28;20424;-63
2023/10/08 11:54:23;;;;;;;4.67;2.07;;;22.10;88.70;;;;;;5008759;28;20461;-62
2023/10/08 11:56:49;;;;;;;8.37;2.80;;;22.20;89.00;;;;;;5010804;28;20414;-62
2023/10/08 11:59:15;;;;;;;5.40;2.77;;;22.30;87.00;;;;;;5009024;28;20938;-63
2023/10/08 12:01:44;;;;;;;6.70;2.97;;;22.40;86.80;;;;;;5010346;28;20174;-63
2023/10/08 12:04:16;;;;;;;15.60;3.93;;;22.40;86.10;;;;;;5009191;28;20528;-63
2023/10/08 12:06:51;;;;;;;3.17;1.60;;;22.30;87.50;;;;;;5010848;28;20522;-62
2023/10/08 12:09:21;;;;;;;11.43;3.17;;;22.30;87.10;;;;;;5009364;28;20432;-63
2023/10/08 12:11:51;;;;;;;3.87;1.87;;;22.40;87.90;;;;;;5010692;28;20428;-63
2023/10/08 12:14:16;;;;;;;4.97;2.20;;;22.50;88.90;;;;;;5008303;28;20465;-62
2023/10/08 12:16:45;;;;;;;5.73;2.13;;;22.80;87.90;;;;;;5009128;28;20460;-63
2023/10/08 12:19:17;;;;;;;5.27;2.57;;;23.10;87.80;;;;;;5008951;28;20648;-62
2023/10/08 12:21:47;;;;;;;5.97;2.50;;;23.00;87.10;;;;;;5009874;28;20454;-62
2023/10/08 12:24:13;;;;;;;17.87;2.83;;;23.40;87.90;;;;;;5008566;28;20430;-63
2023/10/08 12:26:45;;;;;;;6.10;2.07;;;23.40;85.70;;;;;;5008837;28;20429;-63
2023/10/08 12:29:14;;;;;;;8.90;2.90;;;23.70;85.60;;;;;;5008693;28;20848;-63
2023/10/08 12:31:41;;;;;;;7.77;2.83;;;23.80;84.20;;;;;;5008515;28;20467;-62
2023/10/08 12:34:11;;;;;;;5.60;2.20;;;24.10;83.40;;;;;;5008678;28;20465;-63
2023/10/08 12:36:37;;;;;;;10.77;2.10;;;24.10;83.80;;;;;;5008112;28;20857;-63
2023/10/08 12:39:09;;;;;;;7.13;2.20;;;24.20;81.10;;;;;;5010251;28;20501;-63
2023/10/08 12:41:38;;;;;;;9.47;2.30;;;24.40;82.80;;;;;;5008099;28;20567;-63
2023/10/08 12:44:07;;;;;;;9.77;2.03;;;24.40;81.50;;;;;;5008504;28;20456;-63
2023/10/08 12:46:33;;;;;;;14.60;2.37;;;24.50;80.70;;;;;;5003721;28;20929;-63
2023/10/08 12:49:01;;;;;;;16.80;2.73;;;24.60;81.00;;;;;;5008301;28;20491;-63
2023/10/08 12:51:31;;;;;;;7.40;2.87;;;24.70;81.20;;;;;;5007515;28;20425;-63
2023/10/08 12:54:06;;;;;;;9.40;2.90;;;24.80;80.20;;;;;;5008692;28;20506;-63
2023/10/08 12:56:38;;;;;;;5.83;2.70;;;24.80;80.40;;;;;;5010210;28;20424;-63
2023/10/08 12:59:06;;;;;;;5.97;2.47;;;24.70;81.10;;;;;;5008459;28;20754;-63
2023/10/08 13:01:32;;;;;;;9.67;2.50;;;24.70;80.40;;;;;;5009597;28;20417;-63
2023/10/08 13:04:00;;;;;;;11.47;3.00;;;24.80;80.30;;;;;;5008511;28;20525;-63
2023/10/08 13:06:30;;;;;;;5.30;2.83;;;24.60;80.50;;;;;;5008013;28;20425;-63
2023/10/08 13:08:59;;;;;;;13.53;2.40;;;24.60;82.80;;;;;;5009641;28;20428;-63
2023/10/08 13:11:29;;;;;;;6.43;2.30;;;24.80;82.30;;;;;;5008147;28;20425;-63
2023/10/08 13:13:58;;;;;;;5.73;2.43;;;24.80;81.90;;;;;;5005287;28;20469;-63
2023/10/08 13:16:31;;;;;;;12.03;2.50;;;24.90;81.50;;;;;;5007229;28;20421;-63
2023/10/08 13:18:58;;;;;;;5.53;2.37;;;24.90;79.80;;;;;;5006377;28;20492;-63
2023/10/08 13:21:28;;;;;;;5.63;1.83;;;25.00;80.80;;;;;;5008146;28;21051;-63
2023/10/08 13:23:57;;;;;;;9.37;2.63;;;24.80;81.80;;;;;;5008759;28;20417;-63
2023/10/08 13:26:24;;;;;;;5.43;2.00;;;25.00;79.60;;;;;;5006676;28;20487;-63
2023/10/08 13:28:50;;;;;;;11.00;2.63;;;24.80;78.20;;;;;;5004201;28;20425;-63
2023/10/08 13:31:16;;;;;;;16.67;2.57;;;24.80;78.10;;;;;;5002428;28;20425;-63
2023/10/08 13:33:44;;;;;;;13.80;2.40;;;24.70;79.90;;;;;;5008958;28;20527;-63
2023/10/08 13:36:13;;;;;;;15.27;1.97;;;24.70;78.70;;;;;;5006702;28;20422;-63
2023/10/08 13:38:40;;;;;;;11.87;2.60;;;24.60;75.70;;;;;;5009587;28;20467;-63
2023/10/08 13:41:14;;;;;;;9.90;2.17;;;24.60;75.40;;;;;;5008057;28;20749;-63
2023/10/08 13:43:41;;;;;;;6.67;2.47;;;24.70;76.50;;;;;;5009722;28;20459;-63
2023/10/08 13:46:12;;;;;;;9.23;2.87;;;24.80;76.30;;;;;;5006565;28;20418;-63
2023/10/08 13:48:39;;;;;;;4.87;1.97;;;24.80;77.60;;;;;;5009584;28;20425;-63
2023/10/08 13:51:10;;;;;;;10.23;2.63;;;24.80;77.00;;;;;;5008230;28;20432;-63
2023/10/08 13:53:36;;;;;;;14.57;2.10;;;24.80;75.30;;;;;;5009575;28;20467;-63
2023/10/08 13:56:04;;;;;;;7.30;2.67;;;24.90;74.90;;;;;;5009311;28;20421;-62
2023/10/08 13:58:40;;;;;;;27.63;2.43;;;24.90;74.70;;;;;;5013050;28;20308;-63
2023/10/08 14:01:18;;;;;;;9.30;2.60;;;24.90;73.40;;;;;;5009920;28;20482;-63
2023/10/08 14:03:53;;;;;;;5.50;2.07;;;24.80;73.70;;;;;;5012866;28;20429;-63
2023/10/08 14:06:20;;;;;;;8.53;2.50;;;24.60;74.40;;;;;;5008648;28;21302;-63
2023/10/08 14:08:51;;;;;;;13.53;2.37;;;24.70;73.60;;;;;;5010570;28;20452;-62
2023/10/08 14:11:18;;;;;;;22.70;3.33;;;24.70;73.10;;;;;;5002778;28;20430;-62
2023/10/08 14:13:44;;;;;;;5.90;1.90;;;24.60;74.30;;;;;;5011490;28;20461;-62
2023/10/08 14:16:11;;;;;;;5.93;2.60;;;24.60;73.60;;;;;;5009121;28;20418;-63
2023/10/08 14:18:49;;;;;;;7.73;2.00;;;24.60;73.90;;;;;;5012777;28;20194;-62
2023/10/08 14:21:15;;;;;;;14.00;2.87;;;24.60;75.50;;;;;;5010273;28;20424;-62
2023/10/08 14:23:40;;;;;;;8.97;3.23;;;24.60;77.20;;;;;;5012326;28;20898;-63
2023/10/08 14:26:08;;;;;;;7.93;2.87;;;24.60;76.20;;;;;;5009403;28;20182;-63
2023/10/08 14:28:42;;;;;;;9.50;3.43;;;24.70;74.20;;;;;;5012866;28;20711;-63
2023/10/08 14:31:08;;;;;;;6.40;1.97;;;24.60;76.60;;;;;;5008747;28;20420;-63